Time;durP1;ratioP1;P1;durP2;ratioP2;P2;SDS_P1;SDS_P2;PMS_P1;PMS_P2;Temp;Humidity;BMP_temperature;BMP_pressure;BME280_temperature;BME280_humidity;BME280_pressure;Samples;Min_cycle;Max_cycle;Signal;HPM_P1;HPM_P2
2023/03/02 00:01:49;;;;;;;8.00;2.50;;;;;;;2.06;58.87;101096.16;105532;1251;62699;-53
2023/03/02 00:04:45;;;;;;;7.80;2.30;;;;;;;2.03;58.85;101094.85;105775;1256;73631;-54
2023/03/02 00:07:21;;;;;;;7.00;2.30;;;;;;;2.01;59.06;101093.53;105737;1250;60455;-53
2023/03/02 00:09:50;;;;;;;7.30;3.20;;;;;;;1.98;59.28;101093.30;105715;1251;60433;-52
2023/03/02 00:12:19;;;;;;;7.00;2.90;;;;;;;1.94;59.53;101095.86;105750;1255;74633;-53
2023/03/02 00:14:47;;;;;;;5.30;1.90;;;;;;;1.90;59.56;101094.25;105593;1250;71517;-54
2023/03/02 00:17:15;;;;;;;5.80;2.10;;;;;;;1.88;59.90;101092.41;105872;1250;72744;-54
2023/03/02 00:19:44;;;;;;;7.20;3.00;;;;;;;1.84;60.14;101086.67;105719;1251;61536;-53
2023/03/02 00:22:13;;;;;;;6.90;2.70;;;;;;;1.81;60.36;101085.37;105647;1250;61319;-54
2023/03/02 00:24:41;;;;;;;12.40;2.60;;;;;;;1.79;60.43;101087.85;105873;1254;74849;-54
2023/03/02 00:27:09;;;;;;;10.20;2.90;;;;;;;1.77;60.60;101085.31;105759;1253;71275;-54
2023/03/02 00:29:38;;;;;;;5.70;2.90;;;;;;;1.76;60.55;101079.46;105930;1254;73671;-54
2023/03/02 00:32:16;;;;;;;6.80;2.40;;;;;;;1.80;60.53;101077.10;105523;1250;60492;-54
2023/03/02 00:34:45;;;;;;;6.30;1.70;;;;;;;1.87;60.33;101079.98;105715;1250;60610;-54
2023/03/02 00:37:13;;;;;;;6.40;2.00;;;;;;;1.94;60.30;101074.41;105431;1257;74888;-52
2023/03/02 00:39:42;;;;;;;6.30;2.20;;;;;;;1.90;60.28;101073.31;105691;1251;72281;-53
2023/03/02 00:42:10;;;;;;;9.60;2.50;;;;;;;1.91;60.26;101071.56;105592;1253;73066;-54
2023/03/02 00:44:41;;;;;;;6.20;2.20;;;;;;;1.86;60.33;101066.37;105423;1250;60449;-54
2023/03/02 00:47:09;;;;;;;8.40;1.80;;;;;;;1.80;60.39;101069.48;105884;1250;61351;-54
2023/03/02 00:49:37;;;;;;;6.10;2.70;;;;;;;1.76;60.45;101071.53;105553;1254;74537;-54
2023/03/02 00:52:06;;;;;;;7.10;2.60;;;;;;;1.72;60.70;101068.02;105698;1250;71744;-54
2023/03/02 00:54:36;;;;;;;9.60;3.10;;;;;;;1.69;60.75;101068.13;105662;1250;72627;-53
2023/03/02 00:57:04;;;;;;;8.90;2.30;;;;;;;1.64;60.90;101060.84;105931;1252;60578;-53
2023/03/02 00:59:33;;;;;;;7.10;2.90;;;;;;;1.62;60.99;101056.20;105784;1251;60553;-54
2023/03/02 01:02:06;;;;;;;4.40;1.90;;;;;;;1.60;61.04;101054.40;105474;1259;66103;-56
2023/03/02 01:04:39;;;;;;;6.40;2.40;;;;;;;1.53;61.21;101058.93;105810;1250;71288;-53
2023/03/02 01:07:10;;;;;;;8.20;2.40;;;;;;;1.50;61.27;101063.55;105480;1250;65164;-54
2023/03/02 01:09:40;;;;;;;7.60;3.00;;;;;;;1.45;61.43;101067.64;105800;1250;60512;-51
2023/03/02 01:12:10;;;;;;;13.10;2.60;;;;;;;1.43;61.53;101067.56;105661;1250;60449;-52
2023/03/02 01:14:44;;;;;;;9.20;3.90;;;;;;;1.40;61.61;101061.25;105865;1253;74790;-52
2023/03/02 01:17:13;;;;;;;5.80;1.90;;;;;;;1.43;61.50;101062.88;105687;1251;71565;-54
2023/03/02 01:19:43;;;;;;;6.00;1.90;;;;;;;1.50;61.46;101061.45;105555;1252;73788;-54
2023/03/02 01:22:11;;;;;;;4.50;1.40;;;;;;;1.56;61.37;101058.14;105526;1250;61989;-55
2023/03/02 01:24:42;;;;;;;4.10;1.50;;;;;;;1.63;61.29;101057.41;105832;1250;60315;-55
2023/03/02 01:27:11;;;;;;;6.40;2.70;;;;;;;1.65;61.19;101055.60;105677;1250;74621;-55
2023/03/02 01:29:40;;;;;;;6.70;2.00;;;;;;;1.63;61.00;101056.02;105624;1250;71264;-54
2023/03/02 01:32:08;;;;;;;6.40;2.10;;;;;;;1.58;61.04;101054.80;106737;1254;73227;-53
2023/03/02 01:34:38;;;;;;;8.30;2.60;;;;;;;1.52;61.06;101049.95;105747;1250;60409;-52
2023/03/02 01:37:06;;;;;;;7.90;2.50;;;;;;;1.47;61.09;101044.26;105553;1250;61285;-53
2023/03/02 01:39:35;;;;;;;8.20;2.40;;;;;;;1.42;61.15;101041.29;105619;1254;74802;-52
2023/03/02 01:42:05;;;;;;;6.80;2.00;;;;;;;1.36;61.08;101042.70;105559;1250;71210;-53
2023/03/02 01:44:40;;;;;;;8.90;3.20;;;;;;;1.29;61.17;101038.58;105591;1258;73484;-53
2023/03/02 01:47:31;;;;;;;6.30;2.00;;;;;;;1.23;61.29;101037.02;105790;1250;60524;-53
2023/03/02 01:50:23;;;;;;;7.00;2.50;;;;;;;1.19;61.46;101037.52;105568;1250;60639;-53
2023/03/02 01:52:55;;;;;;;5.50;2.00;;;;;;;1.14;61.43;101027.83;105603;1250;65855;-53
2023/03/02 01:55:25;;;;;;;10.30;3.50;;;;;;;1.07;61.59;101027.66;105459;1250;71229;-54
2023/03/02 01:57:53;;;;;;;5.30;2.30;;;;;;;1.02;61.56;101025.92;105414;1259;72804;-53
2023/03/02 02:00:28;;;;;;;6.10;2.10;;;;;;;0.98;61.73;101024.14;105413;1250;60506;-53
2023/03/02 02:03:07;;;;;;;8.80;1.90;;;;;;;1.00;61.60;101025.99;105405;1256;60354;-53
2023/03/02 02:05:42;;;;;;;8.30;2.30;;;;;;;1.06;61.51;101031.33;105546;1250;65321;-53
2023/03/02 02:08:10;;;;;;;6.20;1.70;;;;;;;1.11;61.40;101030.31;105611;1250;71310;-53
2023/03/02 02:10:42;;;;;;;5.70;1.70;;;;;;;1.16;61.39;101029.65;106184;1250;72999;-54
2023/03/02 02:13:11;;;;;;;7.50;3.00;;;;;;;1.17;61.29;101029.98;105390;1256;60844;-53
2023/03/02 02:15:39;;;;;;;8.70;2.30;;;;;;;1.15;61.29;101029.85;105492;1250;61289;-53
2023/03/02 02:18:09;;;;;;;5.70;2.00;;;;;;;1.12;61.22;101030.98;105117;1259;75830;-53
2023/03/02 02:20:44;;;;;;;5.60;2.40;;;;;;;1.09;61.34;101032.44;105602;1252;71576;-53
2023/03/02 02:23:27;;;;;;;6.60;2.60;;;;;;;1.07;61.20;101030.26;105439;1253;64783;-54
2023/03/02 02:26:01;;;;;;;6.80;2.80;;;;;;;1.02;61.19;101030.07;105252;1250;60690;-53
2023/03/02 02:28:41;;;;;;;5.10;2.50;;;;;;;0.98;61.31;101029.17;105591;1250;60497;-54
2023/03/02 02:31:19;;;;;;;6.50;2.70;;;;;;;0.95;61.37;101033.23;105318;1254;68315;-53
2023/03/02 02:33:50;;;;;;;5.40;2.10;;;;;;;0.90;61.25;101033.68;105488;1256;61655;-53
2023/03/02 02:36:24;;;;;;;5.30;1.60;;;;;;;0.84;61.21;101034.07;105414;1250;72300;-53
2023/03/02 02:38:56;;;;;;;5.40;1.90;;;;;;;0.78;61.38;101032.50;105350;1254;60451;-53
2023/03/02 02:41:27;;;;;;;8.30;3.00;;;;;;;0.73;61.43;101039.38;105535;1250;61119;-53
2023/03/02 02:43:57;;;;;;;6.10;2.20;;;;;;;0.70;61.56;101038.24;105306;1250;75122;-53
2023/03/02 02:46:26;;;;;;;6.60;2.70;;;;;;;0.69;61.53;101041.05;105363;1251;71270;-53
2023/03/02 02:48:58;;;;;;;6.10;2.80;;;;;;;0.67;61.49;101041.61;105667;1251;72877;-54
2023/03/02 02:51:27;;;;;;;8.40;3.00;;;;;;;0.65;61.46;101034.61;105549;1252;61938;-54
2023/03/02 02:53:57;;;;;;;8.40;3.30;;;;;;;0.60;61.36;101030.61;105596;1251;61279;-54
2023/03/02 02:56:33;;;;;;;7.00;3.90;;;;;;;0.55;61.59;101029.70;105692;1256;74870;-54
2023/03/02 02:59:07;;;;;;;6.00;1.70;;;;;;;0.49;61.66;101027.78;105944;1250;71060;-53
2023/03/02 03:01:37;;;;;;;5.80;2.10;;;;;;;0.53;61.61;101029.23;105244;1257;73507;-54
2023/03/02 03:04:05;;;;;;;11.10;2.40;;;;;;;0.60;61.49;101027.69;105644;1253;61862;-54
2023/03/02 03:06:40;;;;;;;9.10;2.20;;;;;;;0.67;61.60;101031.26;105389;1254;60559;-53
2023/03/02 03:09:11;;;;;;;5.60;1.70;;;;;;;0.79;61.62;101032.11;105576;1250;73766;-54
2023/03/02 03:11:56;;;;;;;6.50;1.70;;;;;;;0.86;61.28;101030.03;105867;1256;62539;-54
2023/03/02 03:14:38;;;;;;;6.10;2.50;;;;;;;0.83;61.00;101032.02;105625;1256;66003;-54
2023/03/02 03:17:11;;;;;;;8.20;3.70;;;;;;;0.76;60.95;101033.41;105293;1257;60513;-54
2023/03/02 03:19:45;;;;;;;6.70;2.30;;;;;;;0.68;61.02;101030.73;105575;1251;61269;-53
2023/03/02 03:22:14;;;;;;;7.50;2.40;;;;;;;0.60;61.19;101038.18;105550;1251;74162;-53
2023/03/02 03:24:44;;;;;;;8.30;2.90;;;;;;;0.49;61.40;101036.75;105322;1256;70373;-53
2023/03/02 03:27:13;;;;;;;12.90;5.00;;;;;;;0.47;61.39;101039.44;105346;1253;72824;-53
2023/03/02 03:29:46;;;;;;;24.30;12.30;;;;;;;0.42;61.51;101035.05;105525;1251;60334;-53
2023/03/02 03:32:20;;;;;;;66.20;31.50;;;;;;;0.39;61.79;101035.52;105470;1252;60530;-54
2023/03/02 03:34:50;;;;;;;85.60;33.90;;;;;;;0.35;61.83;101035.59;105601;1256;74811;-54
2023/03/02 03:37:22;;;;;;;74.40;28.10;;;;;;;0.31;61.97;101033.48;105648;1251;71013;-55
2023/03/02 03:39:51;;;;;;;61.90;27.50;;;;;;;0.27;62.17;101036.86;105805;1256;72722;-53
2023/03/02 03:42:21;;;;;;;51.60;21.80;;;;;;;0.18;62.46;101032.44;105794;1256;60517;-53
2023/03/02 03:44:49;;;;;;;39.80;16.60;;;;;;;0.15;62.46;101030.44;105697;1254;61020;-53
2023/03/02 03:47:19;;;;;;;30.80;15.90;;;;;;;0.16;62.53;101033.52;105523;1255;74435;-53
2023/03/02 03:49:48;;;;;;;18.30;8.20;;;;;;;0.22;62.46;101033.36;105613;1254;71308;-55
2023/03/02 03:52:16;;;;;;;14.30;6.10;;;;;;;0.31;62.20;101027.94;106098;1253;73668;-53
2023/03/02 03:54:44;;;;;;;11.40;5.30;;;;;;;0.38;62.08;101023.63;105582;1251;61842;-54
2023/03/02 03:57:14;;;;;;;8.80;4.40;;;;;;;0.34;61.96;101019.23;106309;1250;60466;-53
2023/03/02 03:59:42;;;;;;;14.70;5.70;;;;;;;0.35;62.02;101024.05;105506;1259;74585;-53
2023/03/02 04:02:14;;;;;;;9.60;4.00;;;;;;;0.36;62.20;101020.40;105919;1251;69089;-54
2023/03/02 04:04:45;;;;;;;13.50;5.20;;;;;;;0.33;62.32;101018.72;105774;1256;73703;-54
2023/03/02 04:07:19;;;;;;;13.70;7.50;;;;;;;0.31;62.39;101019.81;105533;1250;60551;-55
2023/03/02 04:09:47;;;;;;;13.90;4.50;;;;;;;0.29;62.32;101021.79;105609;1250;61356;-57
2023/03/02 04:12:20;;;;;;;15.20;5.40;;;;;;;0.23;62.42;101015.73;105709;1250;73819;-54
2023/03/02 04:14:52;;;;;;;22.20;8.50;;;;;;;0.18;62.48;101019.66;105513;1257;70209;-56
2023/03/02 04:17:21;;;;;;;21.10;7.10;;;;;;;0.13;62.58;101018.08;105608;1256;73638;-53
2023/03/02 04:19:52;;;;;;;18.40;7.10;;;;;;;0.08;62.70;101021.47;105782;1253;60585;-53
2023/03/02 04:22:20;;;;;;;16.80;5.30;;;;;;;0.05;62.76;101018.95;105908;1253;60402;-54
2023/03/02 04:24:48;;;;;;;13.50;4.10;;;;;;;0.03;62.79;101022.63;105642;1254;76272;-53
2023/03/02 04:27:17;;;;;;;11.70;4.40;;;;;;;0.10;62.66;101020.02;105486;1253;71446;-54
2023/03/02 04:29:46;;;;;;;9.60;2.40;;;;;;;0.07;62.83;101022.38;105505;1256;73448;-53
2023/03/02 04:32:15;;;;;;;8.50;2.70;;;;;;;-0.02;62.92;101016.90;105624;1256;60531;-53
2023/03/02 04:34:46;;;;;;;7.60;2.20;;;;;;;-0.05;63.12;101016.80;106426;1254;61048;-53
2023/03/02 04:37:15;;;;;;;6.50;2.30;;;;;;;-0.06;63.15;101017.70;105677;1253;74740;-53
2023/03/02 04:39:46;;;;;;;8.20;2.60;;;;;;;-0.02;63.23;101020.70;105636;1255;70691;-54
2023/03/02 04:42:19;;;;;;;5.90;1.80;;;;;;;0.08;62.99;101023.05;105840;1250;72357;-53
2023/03/02 04:44:48;;;;;;;5.80;2.60;;;;;;;0.16;62.85;101024.02;105534;1250;61200;-54
2023/03/02 04:47:17;;;;;;;5.50;1.60;;;;;;;0.25;62.85;101026.21;106320;1250;61382;-53
2023/03/02 04:49:49;;;;;;;7.10;1.70;;;;;;;0.35;62.78;101030.94;105612;1250;73565;-53
2023/03/02 04:52:18;;;;;;;7.80;2.10;;;;;;;0.41;62.74;101034.08;105491;1256;71240;-54
2023/03/02 04:54:46;;;;;;;5.80;2.10;;;;;;;0.41;62.75;101037.69;105698;1256;73252;-53
2023/03/02 04:57:14;;;;;;;5.50;1.60;;;;;;;0.40;62.65;101040.11;105794;1250;60448;-54
2023/03/02 04:59:43;;;;;;;5.30;1.50;;;;;;;0.39;62.55;101042.58;105557;1256;59334;-53
2023/03/02 05:02:11;;;;;;;6.40;1.50;;;;;;;0.36;62.53;101043.68;105531;1256;75300;-53
2023/03/02 05:04:40;;;;;;;7.40;3.30;;;;;;;0.34;62.57;101045.46;105608;1250;70879;-53
2023/03/02 05:07:09;;;;;;;8.10;2.40;;;;;;;0.32;62.64;101048.80;105816;1256;72470;-54
2023/03/02 05:09:42;;;;;;;9.60;2.40;;;;;;;0.31;62.72;101050.20;105690;1252;60639;-54
2023/03/02 05:12:11;;;;;;;5.70;1.60;;;;;;;0.30;62.65;101051.09;105601;1250;61516;-53
2023/03/02 05:29:32;;;;;;;5.90;2.40;;;;;;;1.00;61.57;101069.19;102210;1293;601270;-64
2023/03/02 05:32:32;;;;;;;6.20;2.00;;;;;;;1.02;61.44;101069.13;103041;1293;602354;-62
2023/03/02 05:35:02;;;;;;;6.30;2.40;;;;;;;1.08;61.25;101070.16;105190;1262;60773;-62
2023/03/02 05:37:31;;;;;;;6.50;2.50;;;;;;;1.06;61.35;101071.58;104930;1260;61344;-63
2023/03/02 05:40:04;;;;;;;4.90;2.20;;;;;;;1.05;61.28;101071.95;104822;1260;73167;-62
2023/03/02 05:42:36;;;;;;;7.80;1.70;;;;;;;1.05;61.28;101071.11;105013;1260;71377;-64
2023/03/02 05:45:06;;;;;;;11.30;2.30;;;;;;;1.09;61.13;101072.04;104900;1260;321916;-63
2023/03/02 05:47:35;;;;;;;9.00;3.60;;;;;;;1.08;61.12;101073.45;105076;1264;60643;-62
2023/03/02 05:50:04;;;;;;;5.50;2.30;;;;;;;1.04;61.17;101068.73;105234;1260;60243;-63
2023/03/02 05:52:32;;;;;;;11.30;3.30;;;;;;;1.08;61.12;101072.58;105297;1262;73233;-62
2023/03/02 05:55:01;;;;;;;10.00;2.20;;;;;;;1.16;61.08;101075.09;105055;1262;71394;-62
2023/03/02 05:57:30;;;;;;;7.40;3.20;;;;;;;1.26;61.13;101075.17;105039;1260;73609;-62
2023/03/02 06:00:03;;;;;;;6.60;2.30;;;;;;;1.35;61.22;101079.02;105147;1259;61842;-62
2023/03/02 06:02:41;;;;;;;8.10;3.00;;;;;;;1.46;61.03;101076.44;105368;1259;61493;-62
2023/03/02 06:05:11;;;;;;;6.20;2.10;;;;;;;1.53;60.88;101081.41;105217;1258;73670;-61
2023/03/02 06:07:40;;;;;;;13.20;4.80;;;;;;;1.55;60.82;101080.51;105164;1259;71257;-61
2023/03/02 06:10:09;;;;;;;9.10;2.90;;;;;;;1.54;60.93;101087.27;105041;1262;73344;-62
2023/03/02 06:12:38;;;;;;;7.90;3.40;;;;;;;1.54;61.05;101083.79;105132;1260;60687;-62
2023/03/02 06:15:07;;;;;;;7.70;3.90;;;;;;;1.55;61.19;101084.48;105419;1259;60124;-62
2023/03/02 06:17:35;;;;;;;10.50;3.20;;;;;;;1.56;61.10;101083.21;105057;1262;74023;-62
2023/03/02 06:20:09;;;;;;;8.60;3.20;;;;;;;1.58;61.43;101087.30;105303;1260;71462;-63
2023/03/02 06:22:43;;;;;;;7.60;2.80;;;;;;;1.60;61.35;101084.98;105664;1261;72326;-62
2023/03/02 06:25:15;;;;;;;11.80;5.20;;;;;;;1.63;61.52;101083.68;105067;1259;60418;-62
2023/03/02 06:27:43;;;;;;;7.10;2.80;;;;;;;1.68;61.54;101080.58;105249;1258;60318;-64
2023/03/02 06:30:15;;;;;;;9.30;2.90;;;;;;;1.75;61.48;101084.55;105162;1262;72741;-62
2023/03/02 06:32:44;;;;;;;8.50;3.10;;;;;;;1.89;61.36;101083.90;105241;1262;70085;-62
2023/03/02 06:35:13;;;;;;;7.60;3.50;;;;;;;2.05;61.07;101083.20;105095;1260;73690;-62
2023/03/02 06:37:41;;;;;;;9.30;2.80;;;;;;;2.21;60.76;101080.95;105187;1260;60289;-62
2023/03/02 06:40:12;;;;;;;9.90;3.40;;;;;;;2.31;60.81;101075.40;105133;1259;61347;-61
2023/03/02 06:42:41;;;;;;;6.00;2.30;;;;;;;2.38;60.52;101076.35;105432;1262;73713;-61
2023/03/02 06:45:10;;;;;;;9.70;2.80;;;;;;;2.45;60.24;101075.10;105125;1259;69947;-61
2023/03/02 06:47:39;;;;;;;8.90;2.80;;;;;;;2.50;60.24;101080.12;105060;1260;73662;-62
2023/03/02 06:50:09;;;;;;;7.80;3.40;;;;;;;2.53;60.14;101075.86;105256;1260;59803;-63
2023/03/02 06:52:38;;;;;;;11.90;3.00;;;;;;;2.56;60.12;101078.33;105423;1262;60129;-62
2023/03/02 06:55:07;;;;;;;7.70;2.70;;;;;;;2.60;60.27;101079.95;105145;1259;73861;-61
2023/03/02 06:57:38;;;;;;;11.30;3.70;;;;;;;2.63;60.36;101075.16;104956;1260;70592;-62
2023/03/02 07:00:17;;;;;;;5.20;1.80;;;;;;;2.70;60.10;101074.20;105309;1260;72647;-62
2023/03/02 07:02:45;;;;;;;6.20;2.00;;;;;;;2.83;59.87;101078.24;105544;1259;59720;-62
2023/03/02 07:05:15;;;;;;;8.10;3.00;;;;;;;2.96;59.39;101077.59;105574;1260;61098;-62
2023/03/02 07:07:48;;;;;;;7.70;2.20;;;;;;;3.03;59.13;101082.69;105043;1262;73933;-61
2023/03/02 07:10:17;;;;;;;7.10;2.40;;;;;;;3.08;58.80;101082.34;108904;1260;71314;-62
2023/03/02 07:12:45;;;;;;;8.80;2.70;;;;;;;3.12;58.69;101083.40;108846;1258;72623;-62
2023/03/02 07:15:21;;;;;;;;;;;;;;;3.14;58.22;101082.09;108842;1259;57488;-62
2023/03/02 07:17:49;;;;;;;9.00;2.80;;;;;;;3.17;58.07;101074.02;107599;1260;59754;-62
2023/03/02 07:20:18;;;;;;;7.50;3.10;;;;;;;3.20;58.08;101069.75;105656;1259;74288;-61
2023/03/02 07:22:47;;;;;;;9.20;4.10;;;;;;;3.26;58.23;101065.70;105155;1260;70990;-62
2023/03/02 07:25:18;;;;;;;7.80;2.80;;;;;;;3.31;57.73;101069.68;105450;1259;73683;-62
2023/03/02 07:27:48;;;;;;;15.60;6.10;;;;;;;3.35;57.65;101066.56;105578;1260;60515;-62
2023/03/02 11:00:20;;;;;;;6.30;2.00;;;;;;;8.02;42.22;100955.86;102066;1290;600409;-62
2023/03/02 11:03:56;;;;;;;7.00;3.50;;;;;;;8.05;41.41;100956.92;102207;1295;601693;-62
2023/03/02 11:06:24;;;;;;;7.70;4.10;;;;;;;8.12;41.20;100956.34;106366;1269;59145;-62
2023/03/02 11:09:04;;;;;;;4.30;1.70;;;;;;;8.11;41.71;100949.03;105912;1269;59405;-63
2023/03/02 11:11:33;;;;;;;8.50;3.90;;;;;;;8.12;41.65;100950.02;105456;1270;63537;-63
2023/03/02 11:14:15;;;;;;;9.50;4.10;;;;;;;8.17;41.99;100951.65;104502;1266;62839;-63
2023/03/02 11:16:44;;;;;;;8.50;3.90;;;;;;;8.28;41.63;100950.12;104290;1270;602524;-65
2023/03/02 11:19:32;;;;;;;10.20;4.40;;;;;;;8.38;40.93;100953.83;105039;1265;59231;-63
2023/03/02 11:22:32;;;;;;;9.00;4.40;;;;;;;8.46;40.75;100951.84;104604;1269;59244;-63
2023/03/02 11:25:11;;;;;;;7.70;3.70;;;;;;;8.50;40.46;100952.99;104831;1270;63625;-64
2023/03/02 11:27:39;;;;;;;7.80;3.10;;;;;;;8.53;39.95;100946.66;104745;1264;61949;-63
2023/03/02 11:30:12;;;;;;;8.00;3.60;;;;;;;8.54;39.64;100941.16;104528;1270;64818;-64
2023/03/02 11:33:06;;;;;;;7.10;3.30;;;;;;;8.58;39.70;100951.07;104809;1268;59740;-63
2023/03/02 11:35:58;;;;;;;6.30;3.10;;;;;;;8.59;39.73;100943.14;105349;1260;59615;-62
2023/03/02 11:38:26;;;;;;;9.10;3.00;;;;;;;8.55;39.02;100940.44;105375;1260;64487;-62
2023/03/02 11:40:57;;;;;;;8.20;3.00;;;;;;;8.52;38.68;100935.91;105391;1259;62826;-64
2023/03/02 11:43:25;;;;;;;6.60;2.70;;;;;;;8.53;38.80;100931.29;105045;1260;63735;-64
2023/03/02 11:46:02;;;;;;;5.70;3.00;;;;;;;8.61;39.02;100933.41;105643;1260;59713;-64
2023/03/02 11:48:42;;;;;;;7.80;3.30;;;;;;;8.73;38.57;100927.38;105346;1260;59737;-63
2023/03/02 11:51:21;;;;;;;7.50;3.30;;;;;;;8.85;38.59;100927.38;105322;1260;65406;-64
2023/03/02 11:54:01;;;;;;;6.30;3.00;;;;;;;8.90;38.46;100928.45;105213;1260;62684;-63
2023/03/02 11:56:40;;;;;;;6.80;3.00;;;;;;;8.92;38.63;100923.92;105409;1259;64786;-63
2023/03/02 11:59:26;;;;;;;9.50;3.20;;;;;;;8.98;38.20;100930.71;105296;1257;59607;-64
2023/03/02 12:01:55;;;;;;;8.50;3.70;;;;;;;9.07;38.39;100928.05;108932;1256;57479;-63
2023/03/02 12:04:35;;;;;;;7.60;3.20;;;;;;;9.16;38.12;100929.42;107783;1257;64064;-64
2023/03/02 12:07:22;;;;;;;9.40;3.60;;;;;;;9.18;38.08;100928.38;107336;1258;61719;-64
2023/03/02 12:10:04;;;;;;;7.00;3.40;;;;;;;9.21;37.88;100925.00;105428;1257;65024;-63
2023/03/02 12:12:46;;;;;;;9.20;3.20;;;;;;;9.21;37.54;100926.96;105216;1257;59681;-63
2023/03/02 12:15:45;;;;;;;7.20;2.90;;;;;;;9.17;37.16;100923.53;105296;1260;60884;-64
2023/03/02 12:18:25;;;;;;;6.20;2.70;;;;;;;9.21;36.65;100914.19;108948;1257;65561;-63
2023/03/02 12:21:23;;;;;;;7.20;2.80;;;;;;;9.28;35.93;100910.38;108936;1257;62529;-63
2023/03/02 12:23:51;;;;;;;6.40;2.60;;;;;;;9.34;35.79;100908.06;105783;1263;64031;-63
2023/03/02 12:26:19;;;;;;;6.30;2.20;;;;;;;9.38;35.90;100906.08;105927;1256;59705;-63
2023/03/02 12:29:14;;;;;;;7.10;2.90;;;;;;;9.42;35.62;100898.58;105609;1260;60067;-63
2023/03/02 12:31:42;;;;;;;8.50;2.90;;;;;;;9.51;35.85;100894.66;105775;1258;65238;-63
2023/03/02 12:34:23;;;;;;;7.00;3.40;;;;;;;9.59;36.01;100893.09;107594;1260;62060;-64
2023/03/02 12:36:53;;;;;;;6.00;2.80;;;;;;;9.66;36.57;100895.92;105300;1261;64734;-63
2023/03/02 12:39:37;;;;;;;7.70;2.90;;;;;;;9.72;36.36;100894.84;105245;1260;59727;-63
2023/03/02 12:42:29;;;;;;;6.00;2.20;;;;;;;9.74;35.94;100892.61;105399;1256;59714;-63
2023/03/02 12:45:03;;;;;;;7.40;3.00;;;;;;;9.75;35.60;100884.66;105312;1260;65143;-63
2023/03/02 12:47:32;;;;;;;6.70;2.80;;;;;;;9.80;35.46;100882.04;105280;1263;61751;-65
2023/03/02 12:50:19;;;;;;;6.70;3.00;;;;;;;9.88;35.80;100886.91;105229;1258;73513;-64
2023/03/02 12:53:15;;;;;;;7.50;2.70;;;;;;;9.93;35.66;100882.16;105289;1260;59635;-64
2023/03/02 12:55:43;;;;;;;5.50;2.20;;;;;;;9.97;34.75;100872.23;105652;1258;59679;-62
2023/03/02 12:58:18;;;;;;;6.00;2.30;;;;;;;10.04;34.37;100872.45;105349;1261;64597;-64
2023/03/02 13:01:00;;;;;;;9.90;2.70;;;;;;;10.12;34.28;100873.64;105341;1260;61409;-64
2023/03/02 20:12:01;;;;;;;43.20;17.90;;;;;;;3.80;56.05;100815.72;102208;1299;603437;-54
2023/03/02 20:14:30;;;;;;;88.50;53.60;;;;;;;4.21;55.25;100812.85;104528;1268;98238;-54
2023/03/02 20:17:01;;;;;;;108.00;60.70;;;;;;;4.18;55.11;100813.52;104703;1267;59295;-54
2023/03/02 20:19:30;;;;;;;48.20;22.00;;;;;;;4.14;55.05;100815.80;104667;1267;63771;-54
2023/03/02 20:21:58;;;;;;;53.10;22.70;;;;;;;4.05;54.95;100813.23;104651;1268;62657;-55
2023/03/02 20:24:29;;;;;;;60.50;35.60;;;;;;;3.96;55.03;100815.39;104577;1267;65109;-54
2023/03/02 20:26:58;;;;;;;31.40;13.00;;;;;;;3.86;55.00;100813.59;104655;1267;59280;-54
2023/03/02 20:29:26;;;;;;;21.00;11.10;;;;;;;3.75;55.21;100810.94;104657;1268;59386;-54
2023/03/02 20:31:56;;;;;;;54.60;31.80;;;;;;;3.65;55.49;100805.30;104697;1271;64577;-54
2023/03/02 20:34:24;;;;;;;38.20;15.20;;;;;;;3.60;55.65;100802.95;104619;1267;62476;-54
2023/03/02 20:36:52;;;;;;;39.90;14.10;;;;;;;3.52;55.73;100800.16;104635;1267;72382;-54
2023/03/02 20:39:24;;;;;;;34.30;14.50;;;;;;;3.44;55.69;100790.60;104569;1267;59690;-54
2023/03/02 20:41:52;;;;;;;32.70;15.40;;;;;;;3.36;55.99;100788.52;104745;1270;59621;-54
2023/03/02 20:44:22;;;;;;;31.00;16.50;;;;;;;3.31;56.21;100788.55;104590;1266;65345;-54
2023/03/02 20:46:53;;;;;;;32.40;16.50;;;;;;;3.25;56.31;100784.52;104628;1267;62514;-55
2023/03/02 20:49:22;;;;;;;37.00;16.40;;;;;;;3.16;56.39;100785.06;104606;1267;65029;-54
2023/03/02 20:51:53;;;;;;;39.70;15.00;;;;;;;3.08;56.55;100782.27;104648;1267;59583;-55
2023/03/02 20:54:29;;;;;;;46.80;30.80;;;;;;;3.00;56.64;100780.00;104588;1266;59722;-54
2023/03/02 20:56:58;;;;;;;38.10;15.00;;;;;;;2.91;56.99;100777.09;104683;1266;65429;-54
2023/03/02 20:59:27;;;;;;;35.20;13.40;;;;;;;2.83;57.28;100777.27;104717;1268;71261;-54
2023/03/02 21:01:55;;;;;;;40.30;17.20;;;;;;;2.73;57.49;100772.80;104571;1265;72395;-54
2023/03/02 21:04:23;;;;;;;37.20;13.50;;;;;;;2.64;57.64;100772.14;104742;1270;59771;-54
2023/03/02 21:06:52;;;;;;;33.20;14.40;;;;;;;2.51;57.75;100771.98;105522;1256;61079;-54
2023/03/02 21:09:20;;;;;;;29.70;13.60;;;;;;;2.42;57.97;100769.23;105844;1255;73031;-54
2023/03/02 21:11:49;;;;;;;25.40;13.70;;;;;;;2.38;57.96;100773.50;105416;1256;71261;-54
2023/03/02 21:14:17;;;;;;;29.00;13.10;;;;;;;2.38;58.25;100770.78;105460;1260;72625;-54
2023/03/02 21:16:46;;;;;;;25.70;14.00;;;;;;;2.37;58.46;100771.30;105452;1256;60392;-53
2023/03/02 21:19:17;;;;;;;28.60;15.00;;;;;;;2.38;58.71;100767.28;105500;1256;61060;-54
2023/03/02 21:21:46;;;;;;;26.90;13.10;;;;;;;2.38;58.68;100767.98;105400;1258;74175;-54
2023/03/02 21:24:15;;;;;;;26.50;12.40;;;;;;;2.34;58.80;100767.61;105358;1260;71011;-53
2023/03/02 21:26:44;;;;;;;29.30;12.50;;;;;;;2.33;59.03;100763.69;105478;1257;73277;-53
2023/03/02 21:29:12;;;;;;;18.10;9.30;;;;;;;2.38;59.00;100765.04;105507;1256;61852;-53
2023/03/02 21:31:42;;;;;;;16.20;8.00;;;;;;;2.47;59.01;100766.41;105766;1255;59626;-53
2023/03/02 21:34:11;;;;;;;28.90;10.10;;;;;;;2.57;58.95;100761.52;105510;1256;65401;-54
2023/03/02 21:36:41;;;;;;;20.00;8.50;;;;;;;2.66;58.99;100760.63;105437;1255;61781;-53
2023/03/02 21:39:10;;;;;;;39.40;23.60;;;;;;;2.76;58.86;100761.42;105521;1255;73658;-54
2023/03/02 21:41:39;;;;;;;21.00;9.50;;;;;;;2.83;58.61;100758.36;105434;1256;59693;-54
2023/03/02 21:44:07;;;;;;;36.30;13.20;;;;;;;2.85;58.53;100760.04;105391;1255;59634;-54
2023/03/02 21:46:37;;;;;;;24.70;12.90;;;;;;;2.83;58.42;100760.98;105439;1255;65140;-54
2023/03/02 21:49:06;;;;;;;22.30;12.10;;;;;;;2.77;58.34;100759.66;105391;1255;61803;-54
2023/03/02 21:51:35;;;;;;;24.20;12.10;;;;;;;2.71;58.30;100762.15;105433;1254;65107;-53
2023/03/02 21:54:03;;;;;;;24.90;12.40;;;;;;;2.65;58.26;100763.26;105494;1256;60573;-54
2023/03/02 21:56:31;;;;;;;18.60;9.40;;;;;;;2.58;58.37;100761.14;105427;1255;61170;-54
2023/03/02 21:59:04;;;;;;;18.00;9.40;;;;;;;2.52;58.56;100765.20;105348;1260;66265;-54
2023/03/02 22:01:33;;;;;;;15.90;7.80;;;;;;;2.45;59.15;100759.25;105218;1259;71361;-54
2023/03/02 22:04:01;;;;;;;17.90;8.20;;;;;;;2.41;59.54;100755.42;105473;1255;73611;-54
2023/03/02 22:06:31;;;;;;;21.80;9.20;;;;;;;2.36;59.60;100759.22;105264;1256;60489;-53
2023/03/02 22:09:00;;;;;;;25.70;12.20;;;;;;;2.29;59.66;100755.89;105551;1260;61311;-54
2023/03/02 22:11:33;;;;;;;19.40;10.10;;;;;;;2.22;59.74;100754.42;105540;1256;73808;-54
2023/03/02 22:14:13;;;;;;;21.90;9.00;;;;;;;2.15;59.87;100750.89;105493;1260;61438;-54
2023/03/02 22:16:45;;;;;;;17.30;9.30;;;;;;;2.05;59.92;100751.08;105409;1256;65044;-54
2023/03/02 22:19:26;;;;;;;16.00;9.90;;;;;;;1.97;59.99;100752.63;105440;1256;59888;-54
2023/03/02 22:21:58;;;;;;;20.90;10.10;;;;;;;1.89;60.05;100752.93;105478;1255;59650;-54
2023/03/02 22:24:32;;;;;;;21.60;12.10;;;;;;;1.81;60.10;100750.80;105434;1259;65369;-54
2023/03/02 22:27:17;;;;;;;20.50;9.70;;;;;;;1.74;60.14;100748.30;105316;1256;71113;-54
2023/03/02 22:29:46;;;;;;;22.90;11.60;;;;;;;1.67;60.38;100748.71;105561;1260;63709;-54
2023/03/02 22:32:25;;;;;;;30.60;11.60;;;;;;;1.60;60.44;100753.48;105536;1256;59799;-54
2023/03/02 22:34:57;;;;;;;24.60;11.80;;;;;;;1.55;60.72;100747.10;105546;1255;59649;-54
2023/03/02 22:37:29;;;;;;;30.00;15.00;;;;;;;1.50;60.92;100750.36;105602;1256;74045;-54
2023/03/02 22:40:00;;;;;;;33.10;14.60;;;;;;;1.47;61.10;100749.29;105540;1260;70435;-55